sensor_id;sensor_type;location;lat;lon;timestamp;P1;P2;P0
77411;PMS7003;66484;49.968;19.140;2024-02-26T00:01:50;54.25;43.00;29.25
77411;PMS7003;66484;49.968;19.140;2024-02-26T00:04:11;58.00;47.00;29.00
77411;PMS7003;66484;49.968;19.140;2024-02-26T00:06:21;48.50;41.25;28.00
77411;PMS7003;66484;49.968;19.140;2024-02-26T00:08:42;56.75;42.75;27.75
77411;PMS7003;66484;49.968;19.140;2024-02-26T00:10:51;45.50;38.75;28.00
77411;PMS7003;66484;49.968;19.140;2024-02-26T00:13:12;50.25;42.00;26.00
77411;PMS7003;66484;49.968;19.140;2024-02-26T00:15:21;49.50;39.75;25.75
77411;PMS7003;66484;49.968;19.140;2024-02-26T00:17:42;54.75;44.50;28.00
77411;PMS7003;66484;49.968;19.140;2024-02-26T00:19:58;55.25;42.50;27.75
77411;PMS7003;66484;49.968;19.140;2024-02-26T00:22:16;51.00;41.75;27.25
77411;PMS7003;66484;49.968;19.140;2024-02-26T00:24:32;57.25;44.25;28.00
77411;PMS7003;66484;49.968;19.140;2024-02-26T00:26:46;46.50;39.50;26.50
77411;PMS7003;66484;49.968;19.140;2024-02-26T00:29:07;57.00;46.25;29.25
77411;PMS7003;66484;49.968;19.140;2024-02-26T00:31:28;52.75;42.00;28.50
77411;PMS7003;66484;49.968;19.140;2024-02-26T00:33:37;49.25;40.75;27.25
77411;PMS7003;66484;49.968;19.140;2024-02-26T00:35:58;49.00;40.25;27.00
77411;PMS7003;66484;49.968;19.140;2024-02-26T00:38:08;46.50;39.50;26.75
77411;PMS7003;66484;49.968;19.140;2024-02-26T00:40:36;56.75;41.50;26.00
77411;PMS7003;66484;49.968;19.140;2024-02-26T00:43:06;50.00;40.00;26.00
77411;PMS7003;66484;49.968;19.140;2024-02-26T00:45:34;44.00;37.50;25.00
77411;PMS7003;66484;49.968;19.140;2024-02-26T00:48:04;49.00;37.00;24.25
77411;PMS7003;66484;49.968;19.140;2024-02-26T00:50:13;49.25;38.25;26.00
77411;PMS7003;66484;49.968;19.140;2024-02-26T00:52:34;48.50;38.75;25.00
77411;PMS7003;66484;49.968;19.140;2024-02-26T00:54:43;45.25;36.25;25.25
77411;PMS7003;66484;49.968;19.140;2024-02-26T00:57:05;52.75;42.25;27.25
77411;PMS7003;66484;49.968;19.140;2024-02-26T00:59:14;44.50;38.50;25.25
77411;PMS7003;66484;49.968;19.140;2024-02-26T01:01:35;44.00;37.25;24.00
77411;PMS7003;66484;49.968;19.140;2024-02-26T01:03:44;46.50;36.50;25.00
77411;PMS7003;66484;49.968;19.140;2024-02-26T01:06:12;35.75;32.00;19.75
77411;PMS7003;66484;49.968;19.140;2024-02-26T01:08:41;47.50;38.75;25.00
77411;PMS7003;66484;49.968;19.140;2024-02-26T01:11:10;50.00;40.00;26.50
77411;PMS7003;66484;49.968;19.140;2024-02-26T01:13:19;49.50;41.00;25.75
77411;PMS7003;66484;49.968;19.140;2024-02-26T01:15:48;48.25;40.00;24.50
77411;PMS7003;66484;49.968;19.140;2024-02-26T01:18:17;46.25;38.00;25.00
77411;PMS7003;66484;49.968;19.140;2024-02-26T01:20:26;39.50;35.00;23.25
77411;PMS7003;66484;49.968;19.140;2024-02-26T01:22:48;39.25;34.25;24.00
77411;PMS7003;66484;49.968;19.140;2024-02-26T01:24:57;48.00;38.50;24.00
77411;PMS7003;66484;49.968;19.140;2024-02-26T01:27:25;41.00;35.00;23.25
77411;PMS7003;66484;49.968;19.140;2024-02-26T01:29:54;40.75;33.50;22.00
77411;PMS7003;66484;49.968;19.140;2024-02-26T01:32:25;39.75;33.25;22.75
77411;PMS7003;66484;49.968;19.140;2024-02-26T01:34:54;41.50;36.00;24.00
77411;PMS7003;66484;49.968;19.140;2024-02-26T01:37:24;40.75;36.25;24.25
77411;PMS7003;66484;49.968;19.140;2024-02-26T01:39:46;41.25;35.50;24.00
77411;PMS7003;66484;49.968;19.140;2024-02-26T01:42:15;43.75;37.50;24.00
77411;PMS7003;66484;49.968;19.140;2024-02-26T01:44:44;49.50;35.50;24.50
77411;PMS7003;66484;49.968;19.140;2024-02-26T01:46:53;38.00;35.25;22.00
77411;PMS7003;66484;49.968;19.140;2024-02-26T01:49:22;37.50;34.75;24.50
77411;PMS7003;66484;49.968;19.140;2024-02-26T01:51:51;34.25;31.50;22.00
77411;PMS7003;66484;49.968;19.140;2024-02-26T01:54:00;36.75;32.25;21.00
77411;PMS7003;66484;49.968;19.140;2024-02-26T01:56:23;38.50;35.50;23.50
77411;PMS7003;66484;49.968;19.140;2024-02-26T01:58:38;35.75;31.50;21.75
77411;PMS7003;66484;49.968;19.140;2024-02-26T02:00:59;41.00;34.25;22.50
77411;PMS7003;66484;49.968;19.140;2024-02-26T02:03:10;43.50;33.75;21.75
77411;PMS7003;66484;49.968;19.140;2024-02-26T02:05:39;37.75;35.00;22.75
77411;PMS7003;66484;49.968;19.140;2024-02-26T02:08:08;39.75;35.00;22.50
77411;PMS7003;66484;49.968;19.140;2024-02-26T02:10:38;35.25;32.00;21.00
77411;PMS7003;66484;49.968;19.140;2024-02-26T02:12:47;39.00;33.25;23.50
77411;PMS7003;66484;49.968;19.140;2024-02-26T02:15:17;38.00;34.00;20.75
77411;PMS7003;66484;49.968;19.140;2024-02-26T02:17:25;38.75;34.00;23.75
77411;PMS7003;66484;49.968;19.140;2024-02-26T02:19:55;39.50;35.25;24.00
77411;PMS7003;66484;49.968;19.140;2024-02-26T02:22:24;48.00;35.75;24.00
77411;PMS7003;66484;49.968;19.140;2024-02-26T02:24:33;38.50;33.75;21.75
77411;PMS7003;66484;49.968;19.140;2024-02-26T02:27:01;37.00;32.75;22.25
77411;PMS7003;66484;49.968;19.140;2024-02-26T02:29:31;44.00;34.50;24.25
77411;PMS7003;66484;49.968;19.140;2024-02-26T02:31:40;39.25;33.25;20.50
77411;PMS7003;66484;49.968;19.140;2024-02-26T02:34:09;40.75;35.00;23.00
77411;PMS7003;66484;49.968;19.140;2024-02-26T02:36:54;39.00;35.00;24.00
77411;PMS7003;66484;49.968;19.140;2024-02-26T02:39:16;47.25;37.50;23.25
77411;PMS7003;66484;49.968;19.140;2024-02-26T02:41:46;46.25;38.50;23.00
77411;PMS7003;66484;49.968;19.140;2024-02-26T02:44:14;40.25;37.25;23.25
77411;PMS7003;66484;49.968;19.140;2024-02-26T02:46:23;39.00;33.25;22.00
77411;PMS7003;66484;49.968;19.140;2024-02-26T02:48:52;41.50;35.00;22.25
77411;PMS7003;66484;49.968;19.140;2024-02-26T02:51:21;31.25;25.25;17.75
77411;PMS7003;66484;49.968;19.140;2024-02-26T02:53:30;23.00;20.50;16.25
77411;PMS7003;66484;49.968;19.140;2024-02-26T02:55:58;34.25;30.75;20.50
77411;PMS7003;66484;49.968;19.140;2024-02-26T02:58:27;37.50;29.00;18.75
77411;PMS7003;66484;49.968;19.140;2024-02-26T03:00:56;32.25;30.75;19.25
77411;PMS7003;66484;49.968;19.140;2024-02-26T03:03:25;26.25;24.00;15.75
77411;PMS7003;66484;49.968;19.140;2024-02-26T03:05:36;37.50;31.50;20.75
77411;PMS7003;66484;49.968;19.140;2024-02-26T03:07:58;24.50;21.50;14.00
77411;PMS7003;66484;49.968;19.140;2024-02-26T03:10:07;33.25;27.00;17.25
77411;PMS7003;66484;49.968;19.140;2024-02-26T03:12:29;27.00;23.25;17.25
77411;PMS7003;66484;49.968;19.140;2024-02-26T03:14:38;24.50;23.50;16.00
77411;PMS7003;66484;49.968;19.140;2024-02-26T03:16:59;26.25;25.25;17.50
77411;PMS7003;66484;49.968;19.140;2024-02-26T03:19:08;20.00;17.75;13.50
77411;PMS7003;66484;49.968;19.140;2024-02-26T03:21:40;24.00;21.25;13.75
77411;PMS7003;66484;49.968;19.140;2024-02-26T03:23:49;22.25;19.75;14.00
77411;PMS7003;66484;49.968;19.140;2024-02-26T03:26:12;17.75;16.50;12.00
77411;PMS7003;66484;49.968;19.140;2024-02-26T03:28:22;16.50;16.00;12.00
77411;PMS7003;66484;49.968;19.140;2024-02-26T03:30:45;15.50;14.50;11.25
77411;PMS7003;66484;49.968;19.140;2024-02-26T03:32:54;16.00;16.00;11.50
77411;PMS7003;66484;49.968;19.140;2024-02-26T03:35:15;20.00;13.50;10.50
77411;PMS7003;66484;49.968;19.140;2024-02-26T03:37:24;14.75;14.75;8.75
77411;PMS7003;66484;49.968;19.140;2024-02-26T03:39:53;13.50;11.25;8.50
77411;PMS7003;66484;49.968;19.140;2024-02-26T03:42:22;12.25;9.25;6.50
77411;PMS7003;66484;49.968;19.140;2024-02-26T03:44:31;14.25;12.00;9.75
77411;PMS7003;66484;49.968;19.140;2024-02-26T03:46:52;16.00;9.25;3.75
77411;PMS7003;66484;49.968;19.140;2024-02-26T03:49:01;11.00;11.00;7.75
77411;PMS7003;66484;49.968;19.140;2024-02-26T03:51:22;14.50;14.50;11.00
77411;PMS7003;66484;49.968;19.140;2024-02-26T03:53:31;10.00;10.00;6.75
77411;PMS7003;66484;49.968;19.140;2024-02-26T03:56:02;11.00;11.00;8.00
77411;PMS7003;66484;49.968;19.140;2024-02-26T03:58:32;5.00;3.00;2.75
77411;PMS7003;66484;49.968;19.140;2024-02-26T04:01:01;10.50;9.50;6.75
77411;PMS7003;66484;49.968;19.140;2024-02-26T04:03:30;13.00;12.25;7.25
77411;PMS7003;66484;49.968;19.140;2024-02-26T04:05:39;14.00;12.50;9.00
77411;PMS7003;66484;49.968;19.140;2024-02-26T04:08:00;4.50;0.75;0.00
77411;PMS7003;66484;49.968;19.140;2024-02-26T04:10:10;9.75;6.75;5.25
77411;PMS7003;66484;49.968;19.140;2024-02-26T04:12:31;11.50;10.00;6.75
77411;PMS7003;66484;49.968;19.140;2024-02-26T04:14:40;15.25;11.25;8.00
77411;PMS7003;66484;49.968;19.140;2024-02-26T04:17:08;15.25;12.00;7.50
77411;PMS7003;66484;49.968;19.140;2024-02-26T04:19:37;14.25;11.25;6.00
77411;PMS7003;66484;49.968;19.140;2024-02-26T04:21:46;11.75;10.25;7.75
77411;PMS7003;66484;49.968;19.140;2024-02-26T04:24:14;10.00;10.00;6.00
77411;PMS7003;66484;49.968;19.140;2024-02-26T04:26:43;11.00;10.75;7.25
77411;PMS7003;66484;49.968;19.140;2024-02-26T04:28:58;9.00;9.00;7.50
77411;PMS7003;66484;49.968;19.140;2024-02-26T04:31:14;9.00;8.75;7.00
77411;PMS7003;66484;49.968;19.140;2024-02-26T04:33:28;8.00;7.00;5.75
77411;PMS7003;66484;49.968;19.140;2024-02-26T04:35:37;7.50;7.50;5.50
77411;PMS7003;66484;49.968;19.140;2024-02-26T04:38:06;7.25;7.25;4.50
77411;PMS7003;66484;49.968;19.140;2024-02-26T04:40:15;13.50;13.50;8.75
77411;PMS7003;66484;49.968;19.140;2024-02-26T04:42:36;20.25;15.25;12.25
77411;PMS7003;66484;49.968;19.140;2024-02-26T04:44:52;30.75;25.75;15.50
77411;PMS7003;66484;49.968;19.140;2024-02-26T04:47:06;40.50;35.75;24.00
77411;PMS7003;66484;49.968;19.140;2024-02-26T04:49:36;26.25;24.25;16.25
77411;PMS7003;66484;49.968;19.140;2024-02-26T04:51:50;25.75;25.75;15.75
77411;PMS7003;66484;49.968;19.140;2024-02-26T04:54:06;34.75;31.75;20.00
77411;PMS7003;66484;49.968;19.140;2024-02-26T04:56:21;47.75;38.00;23.75
77411;PMS7003;66484;49.968;19.140;2024-02-26T04:58:37;39.50;35.25;24.50
77411;PMS7003;66484;49.968;19.140;2024-02-26T05:00:58;38.25;34.75;23.75
77411;PMS7003;66484;49.968;19.140;2024-02-26T05:03:07;50.00;40.75;26.00
77411;PMS7003;66484;49.968;19.140;2024-02-26T05:05:29;57.00;44.25;27.50
77411;PMS7003;66484;49.968;19.140;2024-02-26T05:07:44;52.00;41.00;27.75
77411;PMS7003;66484;49.968;19.140;2024-02-26T05:10:06;50.50;42.50;25.50
77411;PMS7003;66484;49.968;19.140;2024-02-26T05:12:16;49.75;41.50;25.00
77411;PMS7003;66484;49.968;19.140;2024-02-26T05:14:37;50.75;39.25;25.00
77411;PMS7003;66484;49.968;19.140;2024-02-26T05:16:53;59.75;48.25;31.25
77411;PMS7003;66484;49.968;19.140;2024-02-26T05:19:14;71.75;56.00;37.00
77411;PMS7003;66484;49.968;19.140;2024-02-26T05:21:23;73.25;56.25;37.00
77411;PMS7003;66484;49.968;19.140;2024-02-26T05:23:45;71.25;57.00;37.75
77411;PMS7003;66484;49.968;19.140;2024-02-26T05:25:54;74.25;57.25;37.00
77411;PMS7003;66484;49.968;19.140;2024-02-26T05:28:15;75.25;59.25;39.00
77411;PMS7003;66484;49.968;19.140;2024-02-26T05:30:30;74.25;58.00;38.00
77411;PMS7003;66484;49.968;19.140;2024-02-26T05:32:47;75.00;59.00;38.00
77411;PMS7003;66484;49.968;19.140;2024-02-26T05:35:03;68.50;53.25;38.00
77411;PMS7003;66484;49.968;19.140;2024-02-26T05:37:24;80.25;60.00;39.00
77411;PMS7003;66484;49.968;19.140;2024-02-26T05:39:46;77.25;60.75;38.75
77411;PMS7003;66484;49.968;19.140;2024-02-26T05:42:15;79.50;63.25;40.00
77411;PMS7003;66484;49.968;19.140;2024-02-26T05:44:26;84.00;66.50;40.50
77411;PMS7003;66484;49.968;19.140;2024-02-26T05:46:48;87.00;67.75;44.25
77411;PMS7003;66484;49.968;19.140;2024-02-26T05:48:57;81.00;65.75;41.00
77411;PMS7003;66484;49.968;19.140;2024-02-26T05:51:20;81.00;65.00;41.75
77411;PMS7003;66484;49.968;19.140;2024-02-26T05:53:36;82.75;64.25;39.75
77411;PMS7003;66484;49.968;19.140;2024-02-26T05:55:57;84.00;66.00;42.50
77411;PMS7003;66484;49.968;19.140;2024-02-26T05:58:06;79.75;61.25;39.00
77411;PMS7003;66484;49.968;19.140;2024-02-26T06:00:28;54.00;43.25;21.50
77411;PMS7003;66484;49.968;19.140;2024-02-26T06:02:38;81.50;67.75;40.25
77411;PMS7003;66484;49.968;19.140;2024-02-26T06:04:59;87.75;76.50;42.75
77411;PMS7003;66484;49.968;19.140;2024-02-26T06:07:08;61.00;50.00;31.75
77411;PMS7003;66484;49.968;19.140;2024-02-26T06:09:29;63.75;52.50;33.75
77411;PMS7003;66484;49.968;19.140;2024-02-26T06:11:44;61.75;49.50;28.75
77411;PMS7003;66484;49.968;19.140;2024-02-26T06:14:00;54.00;44.25;27.50
77411;PMS7003;66484;49.968;19.140;2024-02-26T06:16:15;54.25;43.75;30.00
77411;PMS7003;66484;49.968;19.140;2024-02-26T06:18:30;42.25;36.25;23.75
77411;PMS7003;66484;49.968;19.140;2024-02-26T06:20:46;53.00;40.50;26.00
77411;PMS7003;66484;49.968;19.140;2024-02-26T06:23:07;42.00;34.00;25.00
77411;PMS7003;66484;49.968;19.140;2024-02-26T06:25:16;31.25;27.75;18.50
77411;PMS7003;66484;49.968;19.140;2024-02-26T06:27:39;36.50;30.75;20.00
77411;PMS7003;66484;49.968;19.140;2024-02-26T06:29:47;30.75;24.75;18.25
77411;PMS7003;66484;49.968;19.140;2024-02-26T06:32:10;20.75;20.50;14.00
77411;PMS7003;66484;49.968;19.140;2024-02-26T06:34:18;19.50;19.50;11.75
77411;PMS7003;66484;49.968;19.140;2024-02-26T06:36:40;23.75;20.75;15.50
77411;PMS7003;66484;49.968;19.140;2024-02-26T06:38:55;20.00;18.25;12.75
77411;PMS7003;66484;49.968;19.140;2024-02-26T06:41:24;13.25;13.00;11.00
77411;PMS7003;66484;49.968;19.140;2024-02-26T06:43:54;12.75;11.25;8.00
77411;PMS7003;66484;49.968;19.140;2024-02-26T06:46:22;19.25;14.00;10.50
77411;PMS7003;66484;49.968;19.140;2024-02-26T06:48:31;14.75;11.50;8.50
77411;PMS7003;66484;49.968;19.140;2024-02-26T06:50:52;14.50;13.25;8.00
77411;PMS7003;66484;49.968;19.140;2024-02-26T06:53:08;12.75;12.75;8.00
77411;PMS7003;66484;49.968;19.140;2024-02-26T06:55:29;14.00;14.00;10.00
77411;PMS7003;66484;49.968;19.140;2024-02-26T06:57:37;15.50;13.50;9.75
77411;PMS7003;66484;49.968;19.140;2024-02-26T06:59:59;14.75;13.50;9.75
77411;PMS7003;66484;49.968;19.140;2024-02-26T07:02:08;11.00;10.75;6.00
77411;PMS7003;66484;49.968;19.140;2024-02-26T07:04:30;13.50;10.75;8.00
77411;PMS7003;66484;49.968;19.140;2024-02-26T07:06:42;15.25;15.25;11.25
77411;PMS7003;66484;49.968;19.140;2024-02-26T07:09:03;15.75;13.75;10.25
77411;PMS7003;66484;49.968;19.140;2024-02-26T07:11:18;18.75;13.50;8.50
77411;PMS7003;66484;49.968;19.140;2024-02-26T07:13:34;8.75;8.75;7.50
77411;PMS7003;66484;49.968;19.140;2024-02-26T07:15:48;14.25;13.00;8.25
77411;PMS7003;66484;49.968;19.140;2024-02-26T07:18:03;16.25;14.00;8.25
77411;PMS7003;66484;49.968;19.140;2024-02-26T07:20:18;15.25;14.00;10.75
77411;PMS7003;66484;49.968;19.140;2024-02-26T07:22:34;12.75;11.75;8.00
77411;PMS7003;66484;49.968;19.140;2024-02-26T07:24:49;12.33;12.33;7.67
77411;PMS7003;66484;49.968;19.140;2024-02-26T07:27:11;14.67;14.67;9.67
77411;PMS7003;66484;49.968;19.140;2024-02-26T07:29:20;19.33;15.67;8.67
77411;PMS7003;66484;49.968;19.140;2024-02-26T07:31:41;14.00;14.00;9.00
77411;PMS7003;66484;49.968;19.140;2024-02-26T07:33:51;16.33;16.33;11.00
77411;PMS7003;66484;49.968;19.140;2024-02-26T07:36:12;19.00;17.00;12.00
77411;PMS7003;66484;49.968;19.140;2024-02-26T07:38:21;18.33;15.00;10.00
77411;PMS7003;66484;49.968;19.140;2024-02-26T07:40:50;17.33;15.00;8.67
77411;PMS7003;66484;49.968;19.140;2024-02-26T07:43:10;18.00;17.00;13.00
77411;PMS7003;66484;49.968;19.140;2024-02-26T07:45:25;42.50;31.25;21.50
77411;PMS7003;66484;49.968;19.140;2024-02-26T07:47:34;50.50;39.50;25.50
77411;PMS7003;66484;49.968;19.140;2024-02-26T07:49:58;49.00;42.25;28.00
77411;PMS7003;66484;49.968;19.140;2024-02-26T07:52:07;50.50;38.75;23.75
77411;PMS7003;66484;49.968;19.140;2024-02-26T07:54:29;43.75;37.50;24.50
77411;PMS7003;66484;49.968;19.140;2024-02-26T07:56:38;38.50;30.50;20.75
77411;PMS7003;66484;49.968;19.140;2024-02-26T07:59:06;44.75;33.75;20.50
77411;PMS7003;66484;49.968;19.140;2024-02-26T08:01:15;37.75;32.25;22.00
77411;PMS7003;66484;49.968;19.140;2024-02-26T08:03:43;47.25;37.00;22.75
77411;PMS7003;66484;49.968;19.140;2024-02-26T08:06:12;33.75;31.50;21.50
77411;PMS7003;66484;49.968;19.140;2024-02-26T08:08:21;27.50;26.25;18.75
77411;PMS7003;66484;49.968;19.140;2024-02-26T08:10:42;22.50;18.25;13.75
77411;PMS7003;66484;49.968;19.140;2024-02-26T08:12:51;27.00;26.25;17.50
77411;PMS7003;66484;49.968;19.140;2024-02-26T08:15:26;37.00;33.25;22.75
77411;PMS7003;66484;49.968;19.140;2024-02-26T08:17:35;36.25;31.50;21.00
77411;PMS7003;66484;49.968;19.140;2024-02-26T08:20:04;35.00;29.00;21.25
77411;PMS7003;66484;49.968;19.140;2024-02-26T08:22:33;41.25;36.50;23.50
77411;PMS7003;66484;49.968;19.140;2024-02-26T08:25:02;41.50;34.25;21.25
77411;PMS7003;66484;49.968;19.140;2024-02-26T08:27:31;38.00;34.50;23.25
77411;PMS7003;66484;49.968;19.140;2024-02-26T08:30:00;40.50;35.00;23.25
77411;PMS7003;66484;49.968;19.140;2024-02-26T08:32:09;30.25;29.75;20.75
77411;PMS7003;66484;49.968;19.140;2024-02-26T08:34:31;38.75;34.75;23.00
77411;PMS7003;66484;49.968;19.140;2024-02-26T08:36:40;42.50;34.25;22.00
77411;PMS7003;66484;49.968;19.140;2024-02-26T08:39:03;41.25;34.50;21.75
77411;PMS7003;66484;49.968;19.140;2024-02-26T08:41:12;1.50;0.50;0.00
77411;PMS7003;66484;49.968;19.140;2024-02-26T08:43:33;45.50;34.00;23.00
77411;PMS7003;66484;49.968;19.140;2024-02-26T08:45:42;28.00;20.67;9.33
77411;PMS7003;66484;49.968;19.140;2024-02-26T08:48:10;34.75;28.50;17.50
77411;PMS7003;66484;49.968;19.140;2024-02-26T08:50:39;32.33;30.67;20.67
77411;PMS7003;66484;49.968;19.140;2024-02-26T08:52:48;34.00;30.00;18.33
77411;PMS7003;66484;49.968;19.140;2024-02-26T08:55:09;27.67;26.67;18.00
77411;PMS7003;66484;49.968;19.140;2024-02-26T08:57:18;27.33;21.00;13.00
77411;PMS7003;66484;49.968;19.140;2024-02-26T08:59:42;21.33;18.33;16.67
77411;PMS7003;66484;49.968;19.140;2024-02-26T09:01:57;26.33;25.33;19.00
77411;PMS7003;66484;49.968;19.140;2024-02-26T09:04:12;27.67;23.00;16.00
77411;PMS7003;66484;49.968;19.140;2024-02-26T09:06:28;25.33;22.00;15.33
77411;PMS7003;66484;49.968;19.140;2024-02-26T09:08:42;26.33;26.33;19.00
77411;PMS7003;66484;49.968;19.140;2024-02-26T09:10:57;30.00;26.33;19.00
77411;PMS7003;66484;49.968;19.140;2024-02-26T09:13:19;25.67;24.00;17.33
77411;PMS7003;66484;49.968;19.140;2024-02-26T09:15:35;28.33;22.67;16.33
77411;PMS7003;66484;49.968;19.140;2024-02-26T09:17:49;24.67;22.33;16.00
77411;PMS7003;66484;49.968;19.140;2024-02-26T09:20:05;29.00;25.00;16.00
77411;PMS7003;66484;49.968;19.140;2024-02-26T09:22:34;19.33;17.33;12.00
77411;PMS7003;66484;49.968;19.140;2024-02-26T09:24:46;23.00;21.67;15.00
77411;PMS7003;66484;49.968;19.140;2024-02-26T09:27:08;22.33;16.67;12.67
77411;PMS7003;66484;49.968;19.140;2024-02-26T09:29:17;22.33;20.00;14.33
77411;PMS7003;66484;49.968;19.140;2024-02-26T09:31:41;22.67;19.67;13.00
77411;PMS7003;66484;49.968;19.140;2024-02-26T09:33:50;22.67;18.67;13.67
77411;PMS7003;66484;49.968;19.140;2024-02-26T09:36:16;4.67;3.00;0.00
77411;PMS7003;66484;49.968;19.140;2024-02-26T09:38:25;16.00;14.67;11.33
77411;PMS7003;66484;49.968;19.140;2024-02-26T09:41:05;13.33;12.67;9.67
77411;PMS7003;66484;49.968;19.140;2024-02-26T09:43:15;12.33;12.33;10.00
77411;PMS7003;66484;49.968;19.140;2024-02-26T09:45:49;11.00;11.00;9.00
77411;PMS7003;66484;49.968;19.140;2024-02-26T09:48:19;12.67;12.67;9.33
77411;PMS7003;66484;49.968;19.140;2024-02-26T09:50:28;12.00;10.67;7.33
77411;PMS7003;66484;49.968;19.140;2024-02-26T09:52:51;13.67;12.00;10.00
77411;PMS7003;66484;49.968;19.140;2024-02-26T09:55:01;13.00;11.00;7.67
77411;PMS7003;66484;49.968;19.140;2024-02-26T09:57:24;12.00;11.67;8.00
77411;PMS7003;66484;49.968;19.140;2024-02-26T09:59:37;14.00;14.00;10.33
77411;PMS7003;66484;49.968;19.140;2024-02-26T10:02:09;12.00;10.33;8.67
77411;PMS7003;66484;49.968;19.140;2024-02-26T10:04:41;15.00;12.67;9.00
77411;PMS7003;66484;49.968;19.140;2024-02-26T10:06:52;16.67;13.00;9.00
77411;PMS7003;66484;49.968;19.140;2024-02-26T10:09:09;14.33;12.67;10.00
77411;PMS7003;66484;49.968;19.140;2024-02-26T10:11:25;19.33;17.67;11.67
77411;PMS7003;66484;49.968;19.140;2024-02-26T10:13:43;16.67;15.00;11.00
77411;PMS7003;66484;49.968;19.140;2024-02-26T10:15:58;17.00;16.33;11.00
77411;PMS7003;66484;49.968;19.140;2024-02-26T10:18:14;21.67;18.00;11.00
77411;PMS7003;66484;49.968;19.140;2024-02-26T10:20:29;12.67;11.67;9.00
77411;PMS7003;66484;49.968;19.140;2024-02-26T10:22:39;12.25;10.00;9.00
77411;PMS7003;66484;49.968;19.140;2024-02-26T10:25:01;14.00;13.75;11.50
77411;PMS7003;66484;49.968;19.140;2024-02-26T10:27:11;15.75;13.75;9.00
77411;PMS7003;66484;49.968;19.140;2024-02-26T10:29:32;15.50;13.25;8.75
77411;PMS7003;66484;49.968;19.140;2024-02-26T10:31:41;14.75;14.00;11.00
77411;PMS7003;66484;49.968;19.140;2024-02-26T10:34:10;13.00;11.75;9.00
77411;PMS7003;66484;49.968;19.140;2024-02-26T10:36:39;14.00;12.50;9.00
77411;PMS7003;66484;49.968;19.140;2024-02-26T10:38:55;12.00;12.00;9.75
77411;PMS7003;66484;49.968;19.140;2024-02-26T10:41:16;18.25;14.75;10.25
77411;PMS7003;66484;49.968;19.140;2024-02-26T10:43:25;17.67;17.67;12.67
77411;PMS7003;66484;49.968;19.140;2024-02-26T10:45:47;18.33;17.33;12.67
77411;PMS7003;66484;49.968;19.140;2024-02-26T10:47:56;17.00;17.00;12.00
77411;PMS7003;66484;49.968;19.140;2024-02-26T10:50:24;18.33;17.00;12.00
77411;PMS7003;66484;49.968;19.140;2024-02-26T10:52:35;19.00;16.33;11.33
77411;PMS7003;66484;49.968;19.140;2024-02-26T10:55:02;14.75;12.25;9.00
77411;PMS7003;66484;49.968;19.140;2024-02-26T10:57:11;14.67;14.67;10.00
77411;PMS7003;66484;49.968;19.140;2024-02-26T10:59:34;20.75;13.75;11.75
77411;PMS7003;66484;49.968;19.140;2024-02-26T11:01:50;17.00;14.67;11.00
77411;PMS7003;66484;49.968;19.140;2024-02-26T11:04:13;19.67;17.00;13.00
77411;PMS7003;66484;49.968;19.140;2024-02-26T11:06:24;23.00;20.00;14.33
77411;PMS7003;66484;49.968;19.140;2024-02-26T11:08:49;24.67;21.33;14.67
77411;PMS7003;66484;49.968;19.140;2024-02-26T11:11:04;26.67;23.33;16.00
77411;PMS7003;66484;49.968;19.140;2024-02-26T11:13:26;25.67;24.67;18.33
77411;PMS7003;66484;49.968;19.140;2024-02-26T11:15:46;25.67;22.00;16.33
77411;PMS7003;66484;49.968;19.140;2024-02-26T11:18:02;23.33;22.33;15.00
77411;PMS7003;66484;49.968;19.140;2024-02-26T11:20:19;23.33;19.00;13.00
77411;PMS7003;66484;49.968;19.140;2024-02-26T11:22:34;18.00;16.67;13.67
77411;PMS7003;66484;49.968;19.140;2024-02-26T11:24:50;28.00;22.67;17.00
77411;PMS7003;66484;49.968;19.140;2024-02-26T11:27:15;21.50;19.00;13.50
77411;PMS7003;66484;49.968;19.140;2024-02-26T11:29:32;21.50;21.00;14.75
77411;PMS7003;66484;49.968;19.140;2024-02-26T11:31:59;20.00;19.75;15.00
77411;PMS7003;66484;49.968;19.140;2024-02-26T11:34:15;21.25;18.75;11.75
77411;PMS7003;66484;49.968;19.140;2024-02-26T11:36:32;22.75;19.75;13.00
77411;PMS7003;66484;49.968;19.140;2024-02-26T11:38:47;20.00;18.50;14.00
77411;PMS7003;66484;49.968;19.140;2024-02-26T11:41:03;20.00;18.50;13.25
77411;PMS7003;66484;49.968;19.140;2024-02-26T11:43:23;19.25;18.25;12.50
77411;PMS7003;66484;49.968;19.140;2024-02-26T11:46:04;24.25;21.50;17.00
77411;PMS7003;66484;49.968;19.140;2024-02-26T11:48:13;25.00;23.25;15.00
77411;PMS7003;66484;49.968;19.140;2024-02-26T11:50:41;27.50;24.00;17.25
77411;PMS7003;66484;49.968;19.140;2024-02-26T11:56:12;17.00;16.75;12.50
77411;PMS7003;66484;49.968;19.140;2024-02-26T11:58:21;21.50;20.50;13.25
77411;PMS7003;66484;49.968;19.140;2024-02-26T12:00:50;21.33;17.67;13.00
77411;PMS7003;66484;49.968;19.140;2024-02-26T12:03:26;28.67;25.00;17.33
77411;PMS7003;66484;49.968;19.140;2024-02-26T12:05:56;21.25;18.50;13.50
77411;PMS7003;66484;49.968;19.140;2024-02-26T12:08:25;21.00;18.50;12.75
77411;PMS7003;66484;49.968;19.140;2024-02-26T12:12:59;15.50;14.50;10.00
77411;PMS7003;66484;49.968;19.140;2024-02-26T12:15:09;21.75;21.00;14.75
77411;PMS7003;66484;49.968;19.140;2024-02-26T12:17:37;28.00;27.00;17.67
77411;PMS7003;66484;49.968;19.140;2024-02-26T12:19:46;30.67;28.33;18.67
77411;PMS7003;66484;49.968;19.140;2024-02-26T12:22:09;24.25;21.75;15.00
77411;PMS7003;66484;49.968;19.140;2024-02-26T12:24:21;22.33;22.33;14.67
77411;PMS7003;66484;49.968;19.140;2024-02-26T12:26:43;22.00;21.67;16.00
77411;PMS7003;66484;49.968;19.140;2024-02-26T12:28:52;29.67;28.33;19.00
77411;PMS7003;66484;49.968;19.140;2024-02-26T12:31:20;29.33;27.67;18.33
77411;PMS7003;66484;49.968;19.140;2024-02-26T12:33:49;27.00;22.00;16.00
77411;PMS7003;66484;49.968;19.140;2024-02-26T12:35:59;23.75;19.25;13.25
77411;PMS7003;66484;49.968;19.140;2024-02-26T12:38:20;27.00;22.33;15.00
77411;PMS7003;66484;49.968;19.140;2024-02-26T12:40:29;22.33;22.00;15.33
77411;PMS7003;66484;49.968;19.140;2024-02-26T12:42:58;23.33;22.00;16.00
77411;PMS7003;66484;49.968;19.140;2024-02-26T12:45:28;22.33;19.00;12.00
77411;PMS7003;66484;49.968;19.140;2024-02-26T12:47:38;21.25;21.25;15.25
77411;PMS7003;66484;49.968;19.140;2024-02-26T12:49:53;28.50;24.50;19.25
77411;PMS7003;66484;49.968;19.140;2024-02-26T12:52:10;26.25;26.25;17.25
77411;PMS7003;66484;49.968;19.140;2024-02-26T12:54:19;24.25;21.75;15.00
77411;PMS7003;66484;49.968;19.140;2024-02-26T12:56:41;19.75;18.75;14.75